Time;durP1;ratioP1;P1;durP2;ratioP2;P2;SDS_P1;SDS_P2;PMS_P1;PMS_P2;Temp;Humidity;BMP_temperature;BMP_pressure;BME280_temperature;BME280_humidity;BME280_pressure;Samples;Min_cycle;Max_cycle;Signal;HPM_P1;HPM_P2
2023/05/01 00:00:40;;;;;;;0.25;0.25;;;;;;;10.80;98.31;100124.78;4909625;29;20565;-93
2023/05/01 00:03:05;;;;;;;0.00;0.00;;;;;;;10.72;97.72;100113.06;4876421;29;20054;-94
2023/05/01 00:05:31;;;;;;;0.32;0.30;;;;;;;10.72;98.92;100110.28;4908970;29;20107;-94
2023/05/01 00:07:57;;;;;;;0.50;0.50;;;;;;;10.71;99.60;100126.19;4879887;29;20516;-95
2023/05/01 00:10:22;;;;;;;0.17;0.17;;;;;;;10.70;99.33;100113.53;4910029;29;20044;-95
2023/05/01 00:12:48;;;;;;;0.35;0.30;;;;;;;10.65;99.49;100116.81;4904245;29;20106;-94
2023/05/01 00:15:13;;;;;;;0.20;0.20;;;;;;;10.55;100.00;100111.56;4912095;29;20052;-94
2023/05/01 00:17:39;;;;;;;0.88;0.85;;;;;;;10.50;100.00;100103.75;4910715;29;20051;-94
2023/05/01 00:20:05;;;;;;;1.17;0.70;;;;;;;10.51;100.00;100110.88;4906066;29;20044;-94
2023/05/01 00:22:30;;;;;;;0.47;0.47;;;;;;;10.47;100.00;100104.63;4906625;29;20032;-93
2023/05/01 00:24:56;;;;;;;0.17;0.17;;;;;;;10.41;100.00;100100.81;4902072;29;20051;-93
2023/05/01 00:27:21;;;;;;;0.65;0.63;;;;;;;10.40;100.00;100104.78;4892727;29;20039;-93
2023/05/01 00:29:47;;;;;;;0.30;0.30;;;;;;;10.37;100.00;100097.34;4899413;29;20044;-94
2023/05/01 00:32:14;;;;;;;0.50;0.40;;;;;;;10.27;100.00;100099.94;4895306;29;20040;-94
2023/05/01 00:34:40;;;;;;;0.70;0.57;;;;;;;10.34;100.00;100115.63;4903301;29;20044;-93
2023/05/01 00:37:06;;;;;;;0.82;0.82;;;;;;;10.35;100.00;100113.66;4901927;29;20048;-94
2023/05/01 00:39:31;;;;;;;1.00;0.77;;;;;;;10.23;100.00;100104.78;4886494;29;20106;-94
2023/05/01 00:41:57;;;;;;;0.28;0.28;;;;;;;10.31;100.00;100110.97;4902367;29;20036;-94
2023/05/01 00:44:22;;;;;;;0.55;0.55;;;;;;;10.27;100.00;100113.03;4894560;29;20082;-94
2023/05/01 00:46:48;;;;;;;0.43;0.43;;;;;;;10.22;100.00;100106.03;4904958;29;20044;-94
2023/05/01 00:49:14;;;;;;;0.68;0.52;;;;;;;10.30;100.00;100117.72;4893393;29;20052;-94
2023/05/01 00:51:40;;;;;;;0.30;0.30;;;;;;;10.29;100.00;100110.59;4897498;29;20179;-93
2023/05/01 00:54:05;;;;;;;1.75;1.35;;;;;;;10.37;100.00;100105.66;4890902;29;20044;-92
2023/05/01 00:56:31;;;;;;;0.20;0.20;;;;;;;10.34;100.00;100084.34;4904514;29;20107;-95
2023/05/01 00:58:58;;;;;;;0.35;0.35;;;;;;;10.34;100.00;100090.69;4901982;29;20119;-94
2023/05/01 01:01:23;;;;;;;2.70;0.68;;;;;;;10.36;100.00;100093.00;4896038;29;20040;-95
2023/05/01 01:03:53;;;;;;;0.20;0.20;;;;;;;10.37;100.00;100100.91;4901963;29;20059;-94
2023/05/01 01:06:33;;;;;;;1.17;1.08;;;;;;;10.32;100.00;100106.16;4907285;29;20132;-95
2023/05/01 01:09:14;;;;;;;0.77;0.75;;;;;;;10.27;100.00;100108.25;4898397;29;20420;-95
2023/05/01 01:12:13;;;;;;;0.25;0.25;;;;;;;10.27;100.00;100105.47;4928691;29;20063;-94
2023/05/01 01:14:46;;;;;;;0.30;0.10;;;;;;;10.21;100.00;100098.13;4916009;29;20067;-95
2023/05/01 01:17:17;;;;;;;0.10;0.10;;;;;;;10.33;100.00;100118.81;4911628;29;20784;-95
2023/05/01 01:20:00;;;;;;;0.43;0.43;;;;;;;10.34;100.00;100101.78;4915883;29;20055;-95
2023/05/01 01:22:26;;;;;;;0.40;0.40;;;;;;;10.29;100.00;100100.28;4901369;29;20076;-94
2023/05/01 01:25:13;;;;;;;0.30;0.30;;;;;;;10.42;100.00;100096.81;4925535;29;20044;-95
2023/05/01 01:27:58;;;;;;;0.52;0.52;;;;;;;10.40;100.00;100118.66;4912216;29;21029;-95
2023/05/01 01:30:31;;;;;;;1.15;1.05;;;;;;;10.34;100.00;100117.63;4908574;29;20167;-95
2023/05/01 01:33:11;;;;;;;0.00;0.00;;;;;;;10.23;100.00;100113.09;4905721;29;20412;-95
2023/05/01 01:35:41;;;;;;;0.05;0.05;;;;;;;10.34;100.00;100120.41;4916146;29;20063;-95
2023/05/01 01:38:15;;;;;;;0.00;0.00;;;;;;;10.31;100.00;100115.72;4897895;29;20509;-95
2023/05/01 01:40:52;;;;;;;0.40;0.40;;;;;;;10.24;100.00;100103.56;4876051;29;20501;-95
2023/05/01 01:43:19;;;;;;;0.65;0.65;;;;;;;10.22;100.00;100108.78;4901619;29;20084;-95
2023/05/01 01:46:01;;;;;;;0.50;0.50;;;;;;;10.16;100.00;100101.41;4906801;29;20503;-95
2023/05/01 01:48:31;;;;;;;0.98;0.98;;;;;;;10.18;100.00;100113.63;4880195;29;20405;-94
2023/05/01 01:50:58;;;;;;;1.67;0.80;;;;;;;10.12;100.00;100104.25;4905576;29;20042;-94
2023/05/01 01:53:25;;;;;;;0.25;0.25;;;;;;;10.07;100.00;100099.19;4887960;29;20051;-94
2023/05/01 01:55:53;;;;;;;0.68;0.68;;;;;;;10.08;100.00;100111.84;4889237;29;20044;-96
2023/05/01 01:58:24;;;;;;;0.40;0.40;;;;;;;10.12;100.00;100107.00;4887162;29;20036;-95
2023/05/01 02:00:51;;;;;;;3.15;1.08;;;;;;;10.03;100.00;100109.59;4904465;29;20040;-95
2023/05/01 02:03:17;;;;;;;0.68;0.43;;;;;;;10.02;100.00;100104.50;4893656;29;20090;-95
2023/05/01 02:05:43;;;;;;;0.45;0.45;;;;;;;9.93;100.00;100099.56;4904252;29;20068;-94
2023/05/01 02:08:10;;;;;;;0.43;0.43;;;;;;;9.96;100.00;100112.53;4906875;29;20044;-94
2023/05/01 02:10:36;;;;;;;0.22;0.22;;;;;;;9.78;100.00;100090.00;4899288;29;20055;-94
2023/05/01 02:13:03;;;;;;;0.63;0.63;;;;;;;9.71;100.00;100087.38;4903868;29;20112;-95
2023/05/01 02:15:29;;;;;;;0.40;0.40;;;;;;;9.72;100.00;100114.66;4899450;29;20043;-95
2023/05/01 02:17:55;;;;;;;0.20;0.20;;;;;;;9.69;100.00;100109.19;4911773;29;20047;-94
2023/05/01 02:20:21;;;;;;;1.38;0.55;;;;;;;9.58;100.00;100100.34;4907030;29;20048;-96
2023/05/01 02:22:47;;;;;;;0.57;0.57;;;;;;;9.57;100.00;100101.56;4906435;29;20488;-95
2023/05/01 02:25:15;;;;;;;1.27;0.80;;;;;;;9.62;100.00;100115.69;4907964;29;20043;-95
2023/05/01 02:27:49;;;;;;;0.10;0.10;;;;;;;9.64;100.00;100115.25;4908726;29;20485;-94
2023/05/01 02:30:17;;;;;;;0.30;0.25;;;;;;;9.46;100.00;100082.41;4896373;29;20048;-95
2023/05/01 02:32:43;;;;;;;0.25;0.25;;;;;;;9.57;100.00;100093.25;4892128;29;20039;-96
2023/05/01 02:35:10;;;;;;;0.00;0.00;;;;;;;9.70;100.00;100103.25;4912055;29;20040;-95
2023/05/01 02:37:37;;;;;;;0.60;0.60;;;;;;;9.80;100.00;100098.66;4897666;29;20120;-95
2023/05/01 02:40:03;;;;;;;1.55;0.95;;;;;;;9.81;100.00;100108.53;4903084;29;20048;-95
2023/05/01 02:42:30;;;;;;;0.25;0.25;;;;;;;9.82;100.00;100099.81;4911123;29;20036;-95
2023/05/01 02:44:59;;;;;;;2.40;0.90;;;;;;;9.91;100.00;100092.88;4895113;29;20048;-94
2023/05/01 02:47:26;;;;;;;1.25;0.68;;;;;;;9.81;100.00;100087.16;4901235;29;20044;-96
2023/05/01 02:49:53;;;;;;;0.20;0.20;;;;;;;9.90;100.00;100103.19;4878094;29;20044;-95
2023/05/01 02:52:19;;;;;;;0.55;0.55;;;;;;;9.91;100.00;100107.50;4897755;29;20071;-96
2023/05/01 02:54:48;;;;;;;1.10;0.73;;;;;;;9.93;100.00;100107.06;4927479;29;20044;-95
2023/05/01 02:57:16;;;;;;;0.65;0.65;;;;;;;9.96;100.00;100115.31;4919091;29;20036;-96
2023/05/01 02:59:42;;;;;;;0.00;0.00;;;;;;;9.90;100.00;100103.19;4896113;29;20118;-95
2023/05/01 03:02:07;;;;;;;0.55;0.30;;;;;;;9.79;100.00;100083.22;4927706;29;20124;-95
2023/05/01 03:04:33;;;;;;;1.30;1.20;;;;;;;9.86;100.00;100099.72;4891317;29;20126;-95
2023/05/01 03:06:59;;;;;;;0.20;0.20;;;;;;;9.92;100.00;100106.28;4888429;29;20055;-96
2023/05/01 03:09:25;;;;;;;0.20;0.20;;;;;;;9.95;100.00;100101.91;4898077;29;20311;-95
2023/05/01 03:11:50;;;;;;;0.20;0.20;;;;;;;9.95;100.00;100113.75;4930436;29;20047;-96
2023/05/01 03:14:16;;;;;;;0.68;0.68;;;;;;;9.66;100.00;100077.63;4886495;29;20122;-95
2023/05/01 03:16:42;;;;;;;0.25;0.25;;;;;;;9.93;100.00;100118.16;4900932;29;20047;-94
2023/05/01 03:19:07;;;;;;;0.22;0.20;;;;;;;9.83;100.00;100117.19;4912898;29;20036;-95
2023/05/01 03:21:33;;;;;;;0.40;0.38;;;;;;;9.76;100.00;100109.03;4900734;29;20059;-94
2023/05/01 03:23:59;;;;;;;0.43;0.30;;;;;;;9.75;100.00;100110.25;4896226;29;20040;-95
2023/05/01 03:26:26;;;;;;;0.20;0.20;;;;;;;9.76;100.00;100111.81;4886984;29;20176;-94
2023/05/01 03:28:51;;;;;;;0.40;0.40;;;;;;;9.75;100.00;100124.09;4890443;29;20044;-94
2023/05/01 03:31:18;;;;;;;0.85;0.55;;;;;;;9.77;100.00;100125.25;4916070;29;20036;-96
2023/05/01 03:33:43;;;;;;;0.38;0.38;;;;;;;9.73;100.00;100119.00;4908990;29;20040;-95
2023/05/01 03:36:12;;;;;;;0.45;0.45;;;;;;;9.76;100.00;100117.34;4901285;29;20059;-95
2023/05/01 03:38:38;;;;;;;0.50;0.40;;;;;;;9.90;100.00;100122.59;4891863;29;20047;-95
2023/05/01 03:41:09;;;;;;;0.22;0.22;;;;;;;9.96;100.00;100125.59;4912158;29;20083;-96
2023/05/01 03:43:40;;;;;;;0.43;0.43;;;;;;;9.96;100.00;100120.84;4914142;29;20112;-95
2023/05/01 03:46:14;;;;;;;1.30;0.40;;;;;;;9.75;100.00;100088.06;4905521;29;20051;-96
2023/05/01 03:48:40;;;;;;;0.90;0.50;;;;;;;9.97;100.00;100103.03;4902341;29;20040;-95
2023/05/01 03:51:07;;;;;;;0.25;0.25;;;;;;;10.05;100.00;100129.34;4904976;29;20051;-95
2023/05/01 03:53:35;;;;;;;0.10;0.10;;;;;;;9.99;100.00;100089.50;4906741;29;20280;-94
2023/05/01 03:56:04;;;;;;;0.10;0.10;;;;;;;9.79;100.00;100061.06;4917892;29;20035;-95
2023/05/01 03:58:30;;;;;;;0.63;0.63;;;;;;;9.89;100.00;100073.91;4909362;29;20047;-94
2023/05/01 04:00:59;;;;;;;0.82;0.82;;;;;;;9.96;100.00;100089.59;4883686;29;20043;-94
2023/05/01 04:03:27;;;;;;;0.20;0.20;;;;;;;9.90;100.00;100083.00;4901739;29;20062;-94
2023/05/01 04:05:53;;;;;;;1.10;1.05;;;;;;;9.83;100.00;100073.63;4888759;29;20085;-95
2023/05/01 04:08:19;;;;;;;0.20;0.20;;;;;;;9.75;100.00;100077.78;4911001;29;20124;-94
2023/05/01 04:10:45;;;;;;;0.50;0.50;;;;;;;9.87;100.00;100090.16;4898048;29;20166;-94
2023/05/01 04:13:11;;;;;;;0.47;0.47;;;;;;;9.90;100.00;100094.88;4933524;29;20044;-95
2023/05/01 04:15:37;;;;;;;0.52;0.52;;;;;;;10.16;100.00;100127.13;4913361;29;20517;-95
2023/05/01 04:18:04;;;;;;;0.47;0.47;;;;;;;9.76;100.00;100076.56;4880652;29;20056;-94
2023/05/01 04:20:31;;;;;;;1.45;1.25;;;;;;;9.94;100.00;100090.03;4909472;29;20115;-95
2023/05/01 04:22:57;;;;;;;0.43;0.25;;;;;;;9.89;100.00;100089.75;4900522;29;20555;-95
2023/05/01 04:25:23;;;;;;;0.45;0.15;;;;;;;9.87;100.00;100073.56;4895330;29;20063;-94
2023/05/01 04:27:54;;;;;;;0.15;0.15;;;;;;;10.16;100.00;100118.03;4878622;29;20042;-95
2023/05/01 04:30:20;;;;;;;0.28;0.28;;;;;;;10.32;100.00;100134.69;4911491;29;21084;-95
2023/05/01 04:32:49;;;;;;;0.65;0.63;;;;;;;10.29;100.00;100128.03;4913028;29;20084;-95
2023/05/01 04:35:18;;;;;;;0.52;0.32;;;;;;;10.15;100.00;100095.06;4912089;29;20036;-95
2023/05/01 04:37:44;;;;;;;0.52;0.52;;;;;;;9.99;100.00;100070.09;4901162;29;20393;-95
2023/05/01 04:40:14;;;;;;;2.08;1.65;;;;;;;10.34;100.00;100131.47;4903751;29;20040;-95
2023/05/01 04:42:41;;;;;;;0.65;0.28;;;;;;;10.35;100.00;100124.72;4907996;29;20138;-95
2023/05/01 04:45:10;;;;;;;0.38;0.38;;;;;;;10.51;100.00;100149.69;4882238;29;20052;-94
2023/05/01 04:47:36;;;;;;;3.00;0.40;;;;;;;10.41;100.00;100109.13;4926765;29;20054;-93
2023/05/01 04:50:02;;;;;;;0.28;0.28;;;;;;;10.73;100.00;100139.59;4910197;29;20044;-94
2023/05/01 04:52:29;;;;;;;0.93;0.90;;;;;;;10.82;100.00;100142.53;4895744;29;20056;-95
2023/05/01 04:54:58;;;;;;;3.35;1.45;;;;;;;10.78;100.00;100130.75;4883816;29;20131;-95
2023/05/01 04:57:26;;;;;;;0.35;0.35;;;;;;;10.82;100.00;100123.13;4889918;29;20051;-95
2023/05/01 04:59:52;;;;;;;0.28;0.28;;;;;;;10.74;100.00;100118.97;4894881;29;20053;-95
2023/05/01 05:02:18;;;;;;;0.60;0.60;;;;;;;10.55;100.00;100100.47;4910473;29;20570;-94
2023/05/01 05:04:43;;;;;;;1.48;1.38;;;;;;;10.66;100.00;100106.50;4905626;29;20044;-93
2023/05/01 05:07:12;;;;;;;0.63;0.52;;;;;;;10.92;100.00;100135.91;4895025;29;20044;-94
2023/05/01 05:10:10;;;;;;;0.20;0.15;;;;;;;11.00;100.00;100131.75;4932656;29;20043;-95
2023/05/01 05:12:40;;;;;;;0.93;0.93;;;;;;;11.07;100.00;100103.03;4929459;29;20063;-96
2023/05/01 05:15:06;;;;;;;0.50;0.50;;;;;;;11.32;100.00;100111.44;4913225;29;20032;-94
2023/05/01 05:17:32;;;;;;;0.90;0.90;;;;;;;11.45;100.00;100133.66;4897776;29;20048;-95
2023/05/01 05:20:01;;;;;;;2.00;0.77;;;;;;;11.51;100.00;100129.16;4914040;29;20117;-96
2023/05/01 05:22:30;;;;;;;0.80;0.38;;;;;;;11.60;100.00;100112.63;4899762;29;20396;-95
2023/05/01 05:25:28;;;;;;;1.17;1.10;;;;;;;11.82;100.00;100137.78;4918795;29;20043;-96
2023/05/01 05:27:54;;;;;;;0.45;0.45;;;;;;;11.88;100.00;100120.13;4908159;29;20048;-95
2023/05/01 05:30:20;;;;;;;0.30;0.30;;;;;;;11.89;100.00;100116.09;4907661;29;20513;-94
2023/05/01 05:32:48;;;;;;;0.38;0.38;;;;;;;12.26;100.00;100166.59;4907545;29;20044;-95
2023/05/01 05:35:14;;;;;;;0.65;0.65;;;;;;;12.28;100.00;100144.69;4906807;29;20046;-95
2023/05/01 05:37:43;;;;;;;0.63;0.63;;;;;;;12.23;100.00;100115.44;4904147;29;20055;-95
2023/05/01 05:40:10;;;;;;;0.68;0.50;;;;;;;12.67;100.00;100138.63;4916294;29;20055;-95
2023/05/01 05:42:47;;;;;;;0.65;0.55;;;;;;;13.01;100.00;100152.56;4884854;29;20044;-95
2023/05/01 05:45:13;;;;;;;1.70;1.60;;;;;;;12.96;100.00;100149.56;4907372;29;20603;-95
2023/05/01 05:47:39;;;;;;;0.60;0.60;;;;;;;13.10;100.00;100154.69;4893323;29;20075;-95
2023/05/01 05:50:06;;;;;;;1.35;1.25;;;;;;;13.08;100.00;100138.41;4900754;29;20054;-94
2023/05/01 05:52:32;;;;;;;0.57;0.57;;;;;;;13.16;100.00;100130.59;4907046;29;20047;-96
2023/05/01 05:54:59;;;;;;;0.38;0.38;;;;;;;13.23;100.00;100137.91;4929505;29;20047;-94
2023/05/01 05:57:25;;;;;;;1.42;1.33;;;;;;;13.57;100.00;100179.66;4905817;29;20108;-95
2023/05/01 05:59:51;;;;;;;0.70;0.70;;;;;;;13.35;100.00;100143.41;4885539;29;20072;-93
2023/05/01 06:02:21;;;;;;;1.25;1.15;;;;;;;13.31;100.00;100136.41;4912780;29;20040;-94
2023/05/01 06:04:47;;;;;;;1.88;0.65;;;;;;;13.35;100.00;100142.63;4889047;29;20135;-94
2023/05/01 06:07:14;;;;;;;0.73;0.73;;;;;;;13.48;100.00;100169.22;4933105;29;20047;-95
2023/05/01 06:09:40;;;;;;;0.47;0.47;;;;;;;13.42;100.00;100154.31;4885550;29;20051;-94
2023/05/01 06:12:06;;;;;;;1.33;1.23;;;;;;;13.51;100.00;100156.38;4902127;29;20050;-95
2023/05/01 06:14:32;;;;;;;0.50;0.32;;;;;;;13.68;100.00;100193.97;4889219;29;20035;-94
2023/05/01 06:16:58;;;;;;;0.20;0.20;;;;;;;13.57;100.00;100159.38;4894106;29;20636;-93
2023/05/01 06:19:24;;;;;;;0.45;0.45;;;;;;;13.65;100.00;100177.38;4899044;29;20052;-95
2023/05/01 06:21:56;;;;;;;1.35;0.50;;;;;;;13.79;100.00;100182.44;4904545;29;20032;-95
2023/05/01 06:24:22;;;;;;;0.40;0.40;;;;;;;13.89;100.00;100162.50;4912387;29;20072;-96
2023/05/01 06:26:51;;;;;;;0.20;0.20;;;;;;;13.94;100.00;100150.78;4896148;29;20043;-95
2023/05/01 06:29:16;;;;;;;0.47;0.47;;;;;;;14.23;98.58;100189.50;4901616;29;20039;-96
2023/05/01 06:31:45;;;;;;;1.15;1.05;;;;;;;14.06;98.74;100167.84;4897148;29;20581;-95
2023/05/01 06:34:11;;;;;;;0.30;0.30;;;;;;;14.07;93.23;100152.69;4902336;29;20476;-96
2023/05/01 06:36:46;;;;;;;0.73;0.38;;;;;;;14.09;94.83;100139.03;4886799;29;20048;-95
2023/05/01 06:39:12;;;;;;;1.08;0.73;;;;;;;14.52;93.79;100157.69;4885327;29;20133;-95
2023/05/01 06:41:38;;;;;;;0.17;0.17;;;;;;;14.48;89.69;100132.69;4894142;29;20143;-95
2023/05/01 06:44:11;;;;;;;0.82;0.55;;;;;;;14.53;84.77;100150.84;4884376;29;20183;-96
2023/05/01 06:46:37;;;;;;;0.95;0.85;;;;;;;14.54;84.54;100169.16;4885769;29;20051;-95
2023/05/01 06:49:06;;;;;;;0.70;0.70;;;;;;;14.46;87.06;100160.31;4895438;29;20035;-96
2023/05/01 06:51:32;;;;;;;0.77;0.60;;;;;;;14.43;86.70;100136.13;4884953;29;20050;-95
2023/05/01 06:53:58;;;;;;;1.35;1.25;;;;;;;14.36;83.38;100131.59;4886834;29;20048;-96
2023/05/01 06:56:24;;;;;;;0.50;0.50;;;;;;;14.40;83.66;100126.63;4885711;29;20062;-96
2023/05/01 06:58:49;;;;;;;1.48;1.30;;;;;;;14.77;81.32;100177.75;4902208;29;20044;-94
2023/05/01 07:01:16;;;;;;;0.73;0.40;;;;;;;15.04;80.53;100181.84;4897999;29;20488;-94
2023/05/01 07:03:42;;;;;;;0.95;0.85;;;;;;;14.80;68.13;100140.50;4877120;29;20066;-95
2023/05/01 07:06:07;;;;;;;0.55;0.52;;;;;;;15.01;67.90;100174.38;4896576;29;20032;-93
2023/05/01 07:08:33;;;;;;;1.25;0.85;;;;;;;15.22;69.87;100173.44;4882511;29;20051;-94
2023/05/01 07:10:59;;;;;;;0.30;0.30;;;;;;;15.56;66.10;100175.97;4885109;29;20447;-95
2023/05/01 07:13:25;;;;;;;0.35;0.35;;;;;;;15.70;61.79;100169.72;4889728;29;20063;-94
2023/05/01 07:15:50;;;;;;;0.55;0.32;;;;;;;15.88;61.33;100190.50;4896628;29;20075;-95
2023/05/01 07:18:16;;;;;;;0.98;0.90;;;;;;;16.03;61.43;100185.81;4880740;29;20043;-92
2023/05/01 07:20:42;;;;;;;0.47;0.47;;;;;;;15.90;59.68;100176.81;4886656;29;20106;-93
2023/05/01 07:23:08;;;;;;;0.25;0.25;;;;;;;16.15;57.96;100184.81;4895918;29;20488;-93
2023/05/01 07:25:36;;;;;;;0.10;0.10;;;;;;;15.98;57.06;100201.19;4878143;29;20040;-96
2023/05/01 07:28:04;;;;;;;0.85;0.50;;;;;;;15.91;57.87;100203.56;4884479;29;20091;-96
2023/05/01 07:30:29;;;;;;;0.45;0.45;;;;;;;16.01;57.53;100200.28;4901011;29;20035;-94
2023/05/01 07:32:56;;;;;;;0.30;0.30;;;;;;;15.69;58.54;100190.53;4882942;29;20050;-94
2023/05/01 07:35:22;;;;;;;0.68;0.68;;;;;;;15.89;57.80;100192.84;4880219;29;20055;-95
2023/05/01 07:38:04;;;;;;;0.25;0.25;;;;;;;15.90;57.80;100204.78;4905396;29;20049;-95
2023/05/01 07:40:37;;;;;;;0.45;0.45;;;;;;;15.60;59.66;100157.00;4920112;29;20135;-95
2023/05/01 07:43:03;;;;;;;0.47;0.47;;;;;;;15.99;58.24;100188.78;4890075;29;20055;-94
2023/05/01 07:45:29;;;;;;;0.70;0.52;;;;;;;16.18;58.37;100169.88;4912596;29;20103;-94
2023/05/01 07:47:55;;;;;;;8.93;1.50;;;;;;;16.63;55.93;100200.50;4885939;29;20502;-95
2023/05/01 07:50:24;;;;;;;0.77;0.77;;;;;;;16.37;51.64;100179.00;4896569;29;20044;-94
2023/05/01 07:53:06;;;;;;;0.10;0.10;;;;;;;16.30;52.22;100180.09;4885487;29;20052;-93
2023/05/01 07:55:36;;;;;;;0.93;0.82;;;;;;;16.34;52.75;100177.91;4880377;29;20047;-93
2023/05/01 07:58:05;;;;;;;0.60;0.57;;;;;;;16.24;52.42;100157.59;4891293;29;20051;-95
2023/05/01 08:00:30;;;;;;;0.38;0.38;;;;;;;16.30;53.24;100197.69;4886883;29;20048;-94
2023/05/01 08:02:56;;;;;;;0.22;0.22;;;;;;;16.21;51.30;100163.38;4904970;29;20386;-95
2023/05/01 08:05:24;;;;;;;0.73;0.70;;;;;;;16.84;49.32;100187.50;4907443;29;20381;-93
2023/05/01 08:07:52;;;;;;;0.05;0.05;;;;;;;17.11;48.19;100156.47;4907803;29;20044;-93
2023/05/01 08:10:20;;;;;;;0.22;0.22;;;;;;;17.03;45.84;100160.88;4888367;29;20043;-94
2023/05/01 08:12:45;;;;;;;0.60;0.57;;;;;;;16.99;48.01;100201.53;4897648;29;20043;-94
2023/05/01 08:15:11;;;;;;;0.47;0.47;;;;;;;17.02;48.23;100164.19;4885849;29;20453;-95
2023/05/01 08:17:39;;;;;;;0.10;0.10;;;;;;;17.23;45.41;100151.84;4900804;29;20040;-94
2023/05/01 08:20:08;;;;;;;0.47;0.47;;;;;;;17.14;43.93;100182.78;4884482;29;20044;-95
2023/05/01 08:22:34;;;;;;;2.20;1.20;;;;;;;17.06;45.58;100192.81;4900982;29;20118;-94
2023/05/01 08:25:00;;;;;;;0.38;0.38;;;;;;;17.41;46.19;100196.56;4904267;29;20564;-94
2023/05/01 08:27:25;;;;;;;0.20;0.20;;;;;;;17.52;43.82;100174.34;4887860;29;20102;-94
2023/05/01 08:29:51;;;;;;;0.30;0.30;;;;;;;17.21;44.97;100148.78;4885766;29;20079;-95
2023/05/01 08:32:17;;;;;;;0.52;0.52;;;;;;;17.21;44.39;100151.56;4882250;29;20035;-94
2023/05/01 08:34:43;;;;;;;1.05;0.98;;;;;;;17.49;45.34;100191.38;4876695;29;20075;-94
2023/05/01 08:37:09;;;;;;;1.38;0.63;;;;;;;17.51;45.72;100155.22;4889520;29;20043;-96
2023/05/01 08:39:35;;;;;;;0.75;0.75;;;;;;;17.81;43.66;100133.56;4875418;29;20036;-94
2023/05/01 08:42:02;;;;;;;0.10;0.10;;;;;;;18.33;41.74;100190.81;4894320;29;20086;-93
2023/05/01 08:44:29;;;;;;;1.30;1.20;;;;;;;18.01;42.18;100184.16;4884867;29;20055;-94
2023/05/01 08:47:13;;;;;;;0.70;0.70;;;;;;;18.01;44.29;100164.53;4877964;29;20289;-93
2023/05/01 08:49:45;;;;;;;0.50;0.50;;;;;;;17.75;42.85;100146.75;4911283;29;20048;-94
2023/05/01 08:52:12;;;;;;;0.43;0.30;;;;;;;17.53;43.90;100163.91;4897371;29;20070;-95
2023/05/01 08:54:43;;;;;;;0.57;0.57;;;;;;;17.62;43.03;100147.81;4901659;29;20055;-94
2023/05/01 08:57:22;;;;;;;;;;;;;;;;;;;;;
2023/05/01 09:00:05;;;;;;;;;;;;;;;;;;;;;
2023/05/01 09:02:49;;;;;;;0.40;0.40;;;;;;;17.37;44.19;100139.91;4915334;29;20054;-95
2023/05/01 09:05:16;;;;;;;0.38;0.32;;;;;;;18.01;44.19;100159.69;4893123;29;20040;-95
2023/05/01 11:42:08;;;;;;;0.35;0.35;;;;;;;21.70;36.49;100075.16;1416238;27;20709;-86
2023/05/01 11:44:33;;;;;;;0.55;0.55;;;;;;;21.53;36.41;100065.91;4879759;29;20051;-86
2023/05/01 11:47:00;;;;;;;0.20;0.20;;;;;;;21.43;35.95;100061.81;4875309;29;20047;-85
2023/05/01 11:49:29;;;;;;;0.20;0.20;;;;;;;21.67;36.98;100067.72;4875677;29;20151;-85
2023/05/01 11:51:56;;;;;;;0.13;0.13;;;;;;;21.55;37.47;100054.88;4890598;29;20078;-87
2023/05/01 11:54:22;;;;;;;0.28;0.28;;;;;;;21.68;36.63;100046.66;4906444;29;20036;-96
2023/05/01 12:18:11;;;;;;;0.68;0.47;;;;;;;22.23;35.93;100028.91;4915231;29;20040;-86
2023/05/01 12:20:41;;;;;;;0.17;0.17;;;;;;;22.42;36.54;100029.09;4876248;29;20041;-85
2023/05/01 12:23:10;;;;;;;4.70;0.82;;;;;;;22.60;35.55;100025.69;4863174;29;20074;-86
2023/05/01 12:25:38;;;;;;;0.30;0.30;;;;;;;22.66;35.00;100012.28;4864184;29;20173;-85
2023/05/01 12:28:18;;;;;;;1.02;0.95;;;;;;;22.26;36.02;99988.31;4877692;29;20033;-85
2023/05/01 12:30:45;;;;;;;1.27;1.10;;;;;;;22.60;36.83;100017.22;4899638;29;20044;-87
2023/05/01 12:33:15;;;;;;;0.20;0.20;;;;;;;21.88;35.32;100012.50;4910947;29;20088;-86
2023/05/01 12:35:44;;;;;;;0.20;0.20;;;;;;;21.60;36.53;100003.28;4900543;29;20489;-86
2023/05/01 12:38:17;;;;;;;0.30;0.25;;;;;;;21.25;36.94;99998.94;4932981;29;20043;-86
2023/05/01 12:40:52;;;;;;;0.60;0.60;;;;;;;21.48;36.82;100007.41;4916237;29;20039;-86
2023/05/01 12:43:32;;;;;;;0.43;0.40;;;;;;;21.46;37.65;99993.03;4900416;29;20051;-85
2023/05/01 12:45:57;;;;;;;1.27;0.45;;;;;;;21.65;36.97;99991.22;4877633;29;20415;-85
2023/05/01 12:48:23;;;;;;;0.10;0.10;;;;;;;21.69;36.61;99977.63;4893298;29;20036;-85
2023/05/01 12:50:55;;;;;;;1.35;0.65;;;;;;;21.77;36.57;99975.81;4896801;29;20090;-85
2023/05/01 12:53:25;;;;;;;0.00;0.00;;;;;;;21.89;37.09;99991.44;4898156;29;20048;-85
2023/05/01 12:55:52;;;;;;;0.55;0.35;;;;;;;22.00;36.83;99977.34;4871362;29;20345;-85
2023/05/01 12:58:18;;;;;;;0.35;0.35;;;;;;;21.99;36.30;99983.50;4878229;29;20501;-86
2023/05/01 13:00:51;;;;;;;0.28;0.28;;;;;;;22.02;36.92;99982.47;4862280;29;20045;-86
2023/05/01 13:03:25;;;;;;;2.20;1.13;;;;;;;22.16;36.04;99975.78;4876143;29;20837;-87
2023/05/01 13:05:53;;;;;;;0.00;0.00;;;;;;;22.27;36.33;99981.38;4904392;29;20118;-87
2023/05/01 13:08:29;;;;;;;1.98;1.25;;;;;;;22.11;36.41;99940.59;4907188;29;20036;-86
2023/05/01 13:10:55;;;;;;;1.13;0.60;;;;;;;22.20;36.25;99973.44;4901191;29;20043;-87
2023/05/01 13:13:28;;;;;;;0.43;0.43;;;;;;;22.10;36.28;99949.59;4918440;29;20044;-87
2023/05/01 13:16:03;;;;;;;0.00;0.00;;;;;;;22.31;36.57;99954.38;4911871;29;20155;-87
2023/05/01 13:18:29;;;;;;;0.88;0.47;;;;;;;22.74;36.60;99951.09;4896953;29;20114;-86
2023/05/01 13:20:55;;;;;;;0.25;0.25;;;;;;;22.53;35.86;99945.03;4894936;29;20056;-86
2023/05/01 13:23:20;;;;;;;0.82;0.60;;;;;;;22.54;35.19;99954.28;4912943;29;20053;-86
2023/05/01 13:25:46;;;;;;;0.52;0.50;;;;;;;22.06;35.69;99935.72;4899756;29;20473;-86
2023/05/01 13:28:17;;;;;;;0.45;0.45;;;;;;;22.20;36.88;99945.94;4915576;29;20059;-86
2023/05/01 13:30:44;;;;;;;0.55;0.55;;;;;;;21.85;36.29;99932.41;4893383;29;20435;-85
2023/05/01 13:33:09;;;;;;;0.50;0.43;;;;;;;21.81;36.94;99925.50;4912613;29;20044;-86
2023/05/01 13:35:36;;;;;;;5.75;1.27;;;;;;;22.12;36.86;99936.47;4906166;29;20056;-93
2023/05/01 13:38:02;;;;;;;0.43;0.43;;;;;;;22.08;35.89;99938.78;4898664;29;20048;-93
2023/05/01 13:40:27;;;;;;;0.22;0.22;;;;;;;21.78;36.19;99932.19;4879020;29;20092;-92
2023/05/01 13:42:53;;;;;;;0.10;0.10;;;;;;;;;;4894811;29;20402;-92
2023/05/01 13:45:22;;;;;;;0.25;0.22;;;;;;;22.05;36.71;99914.41;4896356;29;20044;-85
2023/05/01 13:47:49;;;;;;;0.20;0.20;;;;;;;22.03;37.34;99916.22;4877720;29;20048;-86
2023/05/01 13:50:16;;;;;;;0.63;0.57;;;;;;;22.09;35.60;99914.91;4887332;29;20040;-86
2023/05/01 13:52:43;;;;;;;1.15;0.60;;;;;;;22.13;35.09;99904.13;4899734;29;20456;-86
2023/05/01 13:55:09;;;;;;;0.70;0.52;;;;;;;21.99;35.55;99882.63;4915115;29;20124;-86
2023/05/01 13:57:42;;;;;;;0.10;0.10;;;;;;;22.22;36.43;99895.34;4915425;29;20058;-86
2023/05/01 14:00:10;;;;;;;0.05;0.05;;;;;;;22.52;35.19;99898.28;4903347;29;20052;-86
2023/05/01 14:02:47;;;;;;;0.70;0.43;;;;;;;22.20;34.54;99889.44;4891687;29;20444;-92
2023/05/01 14:05:14;;;;;;;0.20;0.20;;;;;;;22.12;35.93;99879.97;4903949;29;20458;-93
2023/05/01 14:07:55;;;;;;;0.28;0.28;;;;;;;22.27;36.10;99897.38;4916612;29;20506;-92
2023/05/01 14:10:23;;;;;;;0.32;0.30;;;;;;;22.04;35.02;99864.84;4863976;29;20072;-91
2023/05/01 14:12:49;;;;;;;1.13;0.40;;;;;;;22.03;35.54;99885.94;4887722;29;20043;-92
2023/05/01 14:15:14;;;;;;;0.60;0.47;;;;;;;21.87;35.78;99889.56;4884755;29;20043;-92
2023/05/01 14:17:40;;;;;;;0.10;0.10;;;;;;;21.98;35.48;99886.72;4897264;29;20099;-94
2023/05/01 14:20:07;;;;;;;0.08;0.08;;;;;;;22.09;36.58;99886.66;4879945;29;20410;-93
2023/05/01 14:22:43;;;;;;;0.80;0.70;;;;;;;22.38;36.09;99884.47;4889428;29;20446;-91
2023/05/01 14:25:19;;;;;;;0.20;0.20;;;;;;;22.65;35.75;99886.34;4897885;29;20039;-91
2023/05/01 14:27:44;;;;;;;0.20;0.20;;;;;;;22.38;35.81;99876.75;4914937;29;20129;-91